WetterOnline ( https://www.wetteronline.de )

Wetter aktuell Klingenthal

Aktuelles Wetter: Carlsfeld (899m)

6-stündlich | Neueste Meldungen
Ortszeit Temperatur Wetter
So, 14.08. 20:00 20.9° C wolkenlos
So, 14.08. 14:00 22.9° C wolkig
So, 14.08. 8:00 17.3° C fast wolkenlos
So, 14.08. 2:00 14.6° C bedeckt
Sa, 13.08. 20:00 16.7° C bewölkt
Sa, 13.08. 14:00 16.1° C Sprühregen
Sa, 13.08. 8:00 16.1° C wolkenlos
Sa, 13.08. 2:00 11.5° C wolkenlos
Ortszeit Temperatur Wetter
Mo, 15.08. 0:00 17.2° C wolkig
So, 14.08. 23:50 17.2° C wolkig
So, 14.08. 23:40 17.4° C bedeckt
So, 14.08. 23:30 17.5° C bedeckt
So, 14.08. 23:20 17.5° C bedeckt
So, 14.08. 23:10 17.5° C bedeckt
So, 14.08. 23:00 17.9° C bewölkt
So, 14.08. 22:30 17.5° C wolkig
So, 14.08. 22:00 17.6° C wolkig
So, 14.08. 21:30 18.2° C leicht bewölkt
So, 14.08. 21:00 19.0° C wolkenlos
Ortszeit Relative Feuchte Sichtweite
So, 14.08. 20:00 58% 45 km
So, 14.08. 14:00 48% 40 km
So, 14.08. 8:00 84% 40 km
So, 14.08. 2:00 94% 11 km
Sa, 13.08. 20:00 84% 30 km
Sa, 13.08. 14:00 81% 11 km
Sa, 13.08. 8:00 71% 55 km
Sa, 13.08. 2:00 74% 65 km
Ortszeit Relative Feuchte Sichtweite
Mo, 15.08. 0:00 75% 45 km
So, 14.08. 23:50 75% -
So, 14.08. 23:40 74% -
So, 14.08. 23:30 73% 50 km
So, 14.08. 23:20 73% -
So, 14.08. 23:10 73% -
So, 14.08. 23:00 71% 45 km
So, 14.08. 22:30 71% 45 km
So, 14.08. 22:00 69% 50 km
So, 14.08. 21:30 67% 45 km
So, 14.08. 21:00 65% 45 km
Ortszeit Niederschlagsmenge Niederschlagsart
So, 14.08. 20:00 0.0 l/m2 in 12 Std. -
So, 14.08. 14:00 0.0 l/m2 in 6 Std. -
So, 14.08. 8:00 0.0 l/m2 in 12 Std. -
So, 14.08. 2:00 0.0 l/m2 in 6 Std. -
Sa, 13.08. 20:00 0.1 l/m2 in 12 Std. Regen
Sa, 13.08. 14:00 0.1 l/m2 in 6 Std. Regen
Sa, 13.08. 8:00 0.0 l/m2 in 12 Std. -
Sa, 13.08. 2:00 0.0 l/m2 in 6 Std. -
Ortszeit Niederschlagsmenge Niederschlagsart
Mo, 15.08. 0:00 0.0 l/m2 in 1 Std. -
So, 14.08. 23:50 keine Meldung -
So, 14.08. 23:40 keine Meldung -
So, 14.08. 23:30 0.0 l/m2 in 1 Std. -
So, 14.08. 23:20 keine Meldung -
So, 14.08. 23:10 keine Meldung -
So, 14.08. 23:00 0.0 l/m2 in 1 Std. -
So, 14.08. 22:30 0.0 l/m2 in 1 Std. -
So, 14.08. 22:00 0.0 l/m2 in 1 Std. -
So, 14.08. 21:30 0.0 l/m2 in 1 Std. -
So, 14.08. 21:00 0.0 l/m2 in 1 Std. -
Ortszeit Stärke Spitze Richtung
km/h Bft. km/h Grad Sektor
So, 14.08. 20:00 7 2 29 90° O
So, 14.08. 14:00 14 3 32 140° SO
So, 14.08. 8:00 7 2 18 130° SO
So, 14.08. 2:00 7 2 18 150° SO
Sa, 13.08. 20:00 11 2 29 70° O
Sa, 13.08. 14:00 11 2 32 40° NO
Sa, 13.08. 8:00 7 2 11 80° O
Sa, 13.08. 2:00 0 0 22 - -
Ortszeit Stärke Spitze Richtung
km/h Bft. km/h Grad Sektor
Mo, 15.08. 0:00 7 2 14 160° S
So, 14.08. 23:50 7 2 - 160° S
So, 14.08. 23:40 7 2 - 160° S
So, 14.08. 23:30 7 2 14 160° S
So, 14.08. 23:20 7 2 - 160° S
So, 14.08. 23:10 7 2 - 160° S
So, 14.08. 23:00 7 2 11 170° S
So, 14.08. 22:30 6 1 11 160° S
So, 14.08. 22:00 7 2 11 160° S
So, 14.08. 21:30 4 1 7 170° S
So, 14.08. 21:00 4 1 14 130° SO
Ortszeit Untergrenze Bedeckung Gattung
total tief tief mittel hoch
So, 14.08. 20:00 - 0/8 0/8 - - -
So, 14.08. 14:00 1380 m 6/8 5/8 - - -
So, 14.08. 8:00 9000 m 1/8 0/8 - - -
So, 14.08. 2:00 2700 m 8/8 8/8 - - -
Sa, 13.08. 20:00 360 m 7/8 7/8 - - -
Sa, 13.08. 14:00 300 m 8/8 8/8 - - -
Sa, 13.08. 8:00 - 0/8 0/8 - - -
Sa, 13.08. 2:00 - 0/8 0/8 - - -
Ortszeit Bedeckungsgrad in Achtel und Wolkenuntergrenze
Mo, 15.08. 0:00 6(3000m)
So, 14.08. 23:50 6(3000m)
So, 14.08. 23:40 8
So, 14.08. 23:30 8(3000m)
So, 14.08. 23:20 8(3000m)
So, 14.08. 23:10 8
So, 14.08. 23:00 6(2100m) 8(3000m)
So, 14.08. 22:30 2(2100m) 8(3000m)
So, 14.08. 22:00 6(3000m)
So, 14.08. 21:30 2(2700m)
So, 14.08. 21:00 keine Wolken
Ortszeit Stationsdruck (hPa) Tendenz (hPa in 3 Std.)
So, 14.08. 20:00 908 - 0,9
So, 14.08. 14:00 911 - 0,9
So, 14.08. 8:00 912 - 0,8
So, 14.08. 2:00 914 - 0,9
Sa, 13.08. 20:00 915 - 0,8
Sa, 13.08. 14:00 916 - 0,3
Sa, 13.08. 8:00 917 - 0,2
Sa, 13.08. 2:00 918 - 0,4
Ortszeit Stationsdruck (hPa) Tendenz (hPa in 3 Std.)
Mo, 15.08. 0:00 908 - 0,3
So, 14.08. 23:50 908 keine Meldung
So, 14.08. 23:40 908 keine Meldung
So, 14.08. 23:30 908 0,0
So, 14.08. 23:20 908 keine Meldung
So, 14.08. 23:10 908 keine Meldung
So, 14.08. 23:00 908 + 0,1
So, 14.08. 22:30 908 + 0,1
So, 14.08. 22:00 908 + 0,1
So, 14.08. 21:30 909 - 0,1
So, 14.08. 21:00 908 - 0,6
Ortszeit Schneehöhe (cm)
So, 14.08. 20:00 0
So, 14.08. 14:00 0
So, 14.08. 8:00 0
So, 14.08. 2:00 0
Sa, 13.08. 20:00 0
Sa, 13.08. 14:00 0
Sa, 13.08. 8:00 0
Sa, 13.08. 2:00 0
Ortszeit Schneehöhe (cm)
Mo, 15.08. 0:00 0
So, 14.08. 23:50 0
So, 14.08. 23:40 0
So, 14.08. 23:30 0
So, 14.08. 23:20 0
So, 14.08. 23:10 0
So, 14.08. 23:00 0
So, 14.08. 22:30 0
So, 14.08. 22:00 0
So, 14.08. 21:30 0
So, 14.08. 21:00 0
Link zu dieser Seite / Seite empfehlen

Das Wetter in ...